Time;durP1;ratioP1;P1;durP2;ratioP2;P2;SDS_P1;SDS_P2;PMS_P1;PMS_P2;Temp;Humidity;BMP_temperature;BMP_pressure;BME280_temperature;BME280_humidity;BME280_pressure;Samples;Min_cycle;Max_cycle;Signal;HPM_P1;HPM_P2
2022/06/23 00:00:39;;;;;;;1.55;0.80;;;22.40;72.50;;;;;;4126499;28;20030;-70
2022/06/23 00:02:40;;;;;;;3.40;0.73;;;22.40;74.00;;;;;;4128394;28;20038;-70
2022/06/23 00:04:44;;;;;;;1.60;1.00;;;22.40;71.10;;;;;;4129972;28;20085;-70
2022/06/23 00:06:50;;;;;;;1.73;1.00;;;22.40;71.00;;;;;;4129247;28;20030;-70
2022/06/23 00:08:51;;;;;;;1.50;0.93;;;22.40;70.40;;;;;;4128350;28;20034;-69
2022/06/23 00:10:58;;;;;;;1.98;1.00;;;22.30;71.50;;;;;;4126322;28;20026;-69
2022/06/23 00:12:58;;;;;;;1.35;0.85;;;22.30;71.90;;;;;;4127906;28;20124;-70
2022/06/23 00:14:59;;;;;;;1.00;0.82;;;22.30;70.60;;;;;;4129182;28;20038;-68
2022/06/23 00:17:23;;;;;;;1.17;0.98;;;22.30;69.90;;;;;;4129097;28;20039;-69
2022/06/23 00:19:23;;;;;;;1.83;1.00;;;22.20;69.50;;;;;;4123643;28;20038;-69
2022/06/23 00:21:30;;;;;;;1.45;0.90;;;22.10;69.10;;;;;;4127442;28;20452;-70
2022/06/23 00:23:35;;;;;;;2.20;1.30;;;22.00;69.50;;;;;;4128665;28;20054;-69
2022/06/23 00:25:48;;;;;;;1.45;0.90;;;21.90;70.30;;;;;;4124964;28;20490;-70
2022/06/23 00:27:49;;;;;;;3.25;1.02;;;21.70;70.50;;;;;;4129567;28;20464;-70
2022/06/23 00:29:50;;;;;;;1.70;1.08;;;21.50;70.10;;;;;;4127855;28;20050;-70
2022/06/23 00:32:01;;;;;;;2.00;0.95;;;21.50;71.10;;;;;;4126509;28;20046;-68
2022/06/23 00:34:13;;;;;;;1.40;1.17;;;21.40;70.20;;;;;;4128825;28;20039;-69
2022/06/23 00:36:16;;;;;;;4.00;1.17;;;21.30;70.50;;;;;;4129001;28;20042;-70
2022/06/23 00:38:29;;;;;;;1.60;0.90;;;21.20;70.50;;;;;;4123066;28;20031;-70
2022/06/23 00:40:30;;;;;;;0.80;0.80;;;21.20;71.10;;;;;;4121724;28;20386;-69
2022/06/23 00:42:37;;;;;;;1.85;1.23;;;21.20;72.80;;;;;;4127053;28;20081;-70
2022/06/23 00:44:57;;;;;;;2.33;0.88;;;21.30;72.60;;;;;;4125959;28;20057;-70
2022/06/23 00:47:04;;;;;;;1.80;1.17;;;21.30;73.00;;;;;;4127064;28;20129;-70
2022/06/23 00:49:13;;;;;;;1.70;0.93;;;21.40;72.30;;;;;;4123212;28;20502;-70
2022/06/23 00:51:23;;;;;;;1.42;1.02;;;21.40;71.60;;;;;;4126139;28;20046;-70
2022/06/23 00:53:48;;;;;;;1.17;0.80;;;21.40;70.90;;;;;;4119648;28;20026;-70
2022/06/23 00:56:03;;;;;;;2.03;1.15;;;21.50;71.60;;;;;;4136424;28;20027;-70
2022/06/23 00:58:26;;;;;;;1.95;0.88;;;21.50;71.50;;;;;;4128451;28;20042;-70
2022/06/23 01:00:38;;;;;;;1.33;1.00;;;21.50;71.50;;;;;;4124039;28;20160;-70
2022/06/23 01:02:45;;;;;;;1.35;0.93;;;21.50;71.70;;;;;;4127437;28;20490;-70
2022/06/23 01:05:03;;;;;;;2.40;1.20;;;21.50;72.60;;;;;;4126859;28;20158;-70
2022/06/23 01:07:10;;;;;;;2.88;1.08;;;21.50;72.50;;;;;;4124572;28;20042;-70
2022/06/23 01:09:44;;;;;;;1.10;0.88;;;21.50;72.20;;;;;;4123935;28;20524;-70
2022/06/23 01:11:50;;;;;;;1.23;0.93;;;21.50;70.60;;;;;;4125133;28;20022;-70
2022/06/23 01:14:18;;;;;;;1.75;1.10;;;21.40;72.60;;;;;;4125244;28;20061;-70
2022/06/23 01:16:29;;;;;;;2.08;1.30;;;21.40;72.60;;;;;;4124801;28;20343;-70
2022/06/23 01:18:49;;;;;;;1.33;1.08;;;21.30;72.60;;;;;;4126622;28;20390;-70
2022/06/23 01:21:07;;;;;;;2.25;1.10;;;21.40;71.80;;;;;;4125228;28;20022;-70
2022/06/23 01:23:51;;;;;;;3.00;1.10;;;21.40;72.30;;;;;;4124571;28;20497;-70
2022/06/23 01:26:14;;;;;;;1.50;1.00;;;21.40;71.80;;;;;;4125371;28;20121;-70
2022/06/23 01:28:29;;;;;;;4.10;1.08;;;21.30;71.40;;;;;;4124412;28;20110;-70
2022/06/23 01:30:36;;;;;;;2.28;1.25;;;21.20;72.20;;;;;;4125901;28;20065;-70
2022/06/23 01:32:45;;;;;;;1.73;1.13;;;21.20;72.70;;;;;;4124572;28;20023;-70
2022/06/23 01:34:51;;;;;;;2.35;1.15;;;21.20;72.20;;;;;;4127592;28;20029;-70
2022/06/23 01:36:58;;;;;;;1.45;0.98;;;21.20;71.90;;;;;;4123990;28;20085;-69
2022/06/23 01:39:21;;;;;;;1.63;0.75;;;21.20;72.10;;;;;;4125751;28;20030;-70
2022/06/23 01:41:42;;;;;;;1.98;1.05;;;21.20;71.50;;;;;;4124709;28;20441;-69
2022/06/23 01:43:59;;;;;;;2.42;1.10;;;21.20;71.10;;;;;;4122078;28;20070;-70
2022/06/23 01:46:14;;;;;;;1.73;1.02;;;21.10;71.60;;;;;;4125301;28;20045;-70
2022/06/23 01:48:52;;;;;;;1.70;1.05;;;21.10;70.40;;;;;;4125988;28;20110;-70
2022/06/23 01:50:55;;;;;;;1.90;0.90;;;21.00;71.80;;;;;;4117984;28;20035;-69
2022/06/23 01:53:16;;;;;;;1.52;1.00;;;21.00;72.90;;;;;;4125414;28;20023;-70
2022/06/23 01:55:24;;;;;;;1.42;1.10;;;20.90;71.50;;;;;;4126834;28;20065;-71
2022/06/23 01:57:43;;;;;;;1.75;1.08;;;20.90;71.50;;;;;;4125101;28;20034;-70
2022/06/23 02:00:07;;;;;;;1.02;0.85;;;20.90;71.80;;;;;;4125797;28;20038;-70
2022/06/23 02:02:12;;;;;;;2.42;1.33;;;20.90;71.60;;;;;;4123554;28;20033;-70
2022/06/23 02:04:36;;;;;;;2.22;1.20;;;20.80;71.00;;;;;;4125205;28;20389;-70
2022/06/23 02:06:55;;;;;;;2.42;1.35;;;20.70;71.30;;;;;;4125830;28;20022;-70
2022/06/23 02:09:09;;;;;;;3.72;1.48;;;20.60;71.70;;;;;;4127680;28;20046;-70
2022/06/23 02:11:29;;;;;;;2.30;1.20;;;20.40;72.10;;;;;;4125405;28;20042;-70
2022/06/23 02:13:41;;;;;;;1.90;1.30;;;20.30;72.60;;;;;;4128410;28;20040;-70
2022/06/23 02:16:01;;;;;;;1.75;1.23;;;20.20;72.80;;;;;;4130447;28;20429;-70
2022/06/23 02:18:04;;;;;;;2.55;1.33;;;20.30;73.40;;;;;;4128598;28;20061;-69
2022/06/23 02:20:24;;;;;;;1.65;1.13;;;20.30;73.90;;;;;;4128384;28;20122;-71
2022/06/23 02:22:36;;;;;;;2.60;1.05;;;20.30;75.20;;;;;;4128000;28;20026;-69
2022/06/23 02:24:55;;;;;;;1.65;1.17;;;20.40;76.90;;;;;;4128047;28;20079;-69
2022/06/23 02:27:31;;;;;;;2.35;1.23;;;20.40;77.70;;;;;;4128147;28;20035;-69
2022/06/23 02:29:45;;;;;;;2.47;1.17;;;20.50;77.10;;;;;;4127744;28;20038;-69
2022/06/23 02:31:59;;;;;;;3.35;1.20;;;20.50;77.10;;;;;;4129490;28;20042;-69
2022/06/23 02:34:29;;;;;;;2.13;1.45;;;20.60;76.50;;;;;;4128017;28;20045;-70
2022/06/23 02:36:53;;;;;;;2.33;1.20;;;20.60;75.00;;;;;;4127213;28;20294;-70
2022/06/23 02:39:00;;;;;;;2.50;1.30;;;20.60;75.70;;;;;;4127205;28;20046;-70
2022/06/23 02:41:24;;;;;;;2.85;1.73;;;20.60;74.90;;;;;;4127015;28;20043;-68
2022/06/23 02:43:33;;;;;;;2.75;1.40;;;20.70;75.20;;;;;;4128397;28;20045;-70
2022/06/23 02:45:43;;;;;;;1.73;1.20;;;20.70;75.50;;;;;;4128124;28;20093;-69
2022/06/23 02:48:12;;;;;;;2.92;1.58;;;20.70;77.60;;;;;;4128347;28;20041;-70
2022/06/23 02:50:58;;;;;;;2.05;1.35;;;20.70;75.90;;;;;;4127672;28;20046;-71
2022/06/23 02:53:30;;;;;;;2.83;1.60;;;20.80;74.80;;;;;;4137430;28;20087;-70
2022/06/23 02:56:02;;;;;;;3.65;1.50;;;20.80;75.30;;;;;;4128361;28;20046;-69
2022/06/23 02:58:15;;;;;;;1.70;1.38;;;20.80;75.90;;;;;;4089098;28;20493;-69
2022/06/23 03:00:33;;;;;;;2.45;1.52;;;20.80;77.90;;;;;;4126620;28;20514;-71
2022/06/23 03:02:49;;;;;;;2.00;1.40;;;20.80;75.80;;;;;;4129028;28;20433;-69
2022/06/23 03:04:56;;;;;;;1.52;1.30;;;20.80;76.50;;;;;;4129813;28;20030;-70
2022/06/23 03:07:06;;;;;;;1.95;1.38;;;20.70;77.10;;;;;;4128692;28;20486;-69
2022/06/23 03:09:18;;;;;;;2.42;1.42;;;20.70;76.70;;;;;;4126244;28;20118;-70
2022/06/23 03:11:52;;;;;;;1.45;1.20;;;20.70;76.80;;;;;;4127218;28;20604;-70
2022/06/23 03:13:57;;;;;;;2.45;1.35;;;20.70;76.80;;;;;;4129008;28;20023;-69
2022/06/23 03:16:11;;;;;;;2.70;1.50;;;20.70;75.90;;;;;;4124531;28;20042;-70
2022/06/23 03:18:39;;;;;;;3.50;1.30;;;20.60;75.60;;;;;;4127949;28;20046;-70
2022/06/23 03:20:50;;;;;;;2.05;1.10;;;20.60;77.70;;;;;;4126503;28;20097;-70
2022/06/23 03:22:57;;;;;;;2.88;1.60;;;20.60;77.40;;;;;;4127621;28;20122;-69
2022/06/23 03:25:23;;;;;;;3.15;1.45;;;20.60;76.30;;;;;;4127992;28;20038;-70
2022/06/23 03:27:29;;;;;;;2.33;1.50;;;20.60;75.90;;;;;;4126646;28;20048;-69
2022/06/23 03:29:44;;;;;;;1.77;1.50;;;20.60;76.80;;;;;;4125212;28;20042;-70
2022/06/23 03:32:23;;;;;;;3.95;1.52;;;20.60;77.10;;;;;;4125083;28;20142;-70
2022/06/23 03:34:34;;;;;;;4.13;1.80;;;20.60;75.50;;;;;;4127346;28;20034;-69
2022/06/23 03:36:43;;;;;;;1.98;1.30;;;20.60;75.30;;;;;;4125569;28;20046;-69
2022/06/23 03:43:46;;;;;;;3.47;1.55;;;20.40;78.10;;;;;;4128293;28;20046;-69
2022/06/23 03:46:04;;;;;;;4.43;1.70;;;20.40;78.40;;;;;;4127030;28;20059;-70
2022/06/23 03:48:13;;;;;;;4.28;1.88;;;20.40;78.20;;;;;;4132424;28;20057;-69
2022/06/23 03:50:48;;;;;;;3.08;1.50;;;20.40;79.70;;;;;;4126650;28;20039;-71
2022/06/23 03:52:54;;;;;;;2.92;1.60;;;20.50;80.10;;;;;;4128251;28;20015;-69
2022/06/23 03:55:27;;;;;;;2.20;1.45;;;20.50;79.20;;;;;;4127091;28;20116;-69
2022/06/23 03:57:42;;;;;;;3.10;1.57;;;20.50;78.90;;;;;;4113652;28;20022;-70
2022/06/23 03:59:55;;;;;;;2.22;1.30;;;20.50;78.70;;;;;;4125552;28;20031;-69
2022/06/23 04:02:13;;;;;;;3.38;1.77;;;20.50;78.70;;;;;;4123243;28;20058;-69
2022/06/23 04:04:37;;;;;;;2.67;1.60;;;20.60;79.90;;;;;;4127085;28;20073;-70
2022/06/23 04:06:39;;;;;;;2.63;1.50;;;20.60;80.00;;;;;;4123776;28;20493;-69
2022/06/23 04:09:06;;;;;;;3.35;1.65;;;20.60;80.50;;;;;;4126906;28;20042;-69
2022/06/23 04:13:35;;;;;;;3.50;1.95;;;20.60;79.40;;;;;;4127276;28;20026;-70
2022/06/23 04:15:39;;;;;;;3.05;1.50;;;20.60;79.40;;;;;;4126655;28;20034;-70
2022/06/23 04:17:51;;;;;;;2.40;1.50;;;20.60;79.70;;;;;;4127642;28;20034;-69
2022/06/23 04:20:03;;;;;;;2.92;1.70;;;20.60;81.40;;;;;;4123453;28;20034;-69
2022/06/23 04:22:09;;;;;;;3.33;1.98;;;20.60;79.70;;;;;;4126085;28;20446;-69
2022/06/23 04:24:19;;;;;;;3.13;1.73;;;20.60;79.80;;;;;;4127301;28;20030;-69
2022/06/23 04:26:39;;;;;;;2.92;1.80;;;20.60;79.90;;;;;;4126345;28;20375;-69
2022/06/23 04:28:48;;;;;;;2.65;1.63;;;20.60;80.70;;;;;;4126759;28;20103;-69
2022/06/23 04:30:51;;;;;;;3.63;2.20;;;20.60;80.80;;;;;;4126467;28;20427;-70
2022/06/23 04:32:55;;;;;;;2.88;1.90;;;20.60;80.90;;;;;;4125861;28;20034;-69
2022/06/23 04:35:04;;;;;;;4.40;2.08;;;20.60;81.20;;;;;;4125797;28;20442;-69
2022/06/23 04:37:05;;;;;;;4.30;1.77;;;20.60;82.20;;;;;;4122254;28;20073;-69
2022/06/23 04:39:34;;;;;;;1.83;1.60;;;20.70;81.50;;;;;;4126165;28;20034;-69
2022/06/23 04:41:41;;;;;;;2.05;1.50;;;20.70;82.10;;;;;;4123960;28;20037;-69
2022/06/23 04:43:55;;;;;;;2.63;1.73;;;20.70;82.70;;;;;;4128006;28;20065;-69
2022/06/23 04:46:26;;;;;;;3.60;2.30;;;20.60;81.30;;;;;;4123071;28;20031;-69
2022/06/23 04:48:38;;;;;;;3.90;1.80;;;20.60;82.60;;;;;;4119675;28;20478;-70
2022/06/23 04:50:56;;;;;;;4.05;1.83;;;20.60;83.40;;;;;;4125018;28;20034;-69
2022/06/23 04:52:58;;;;;;;3.90;2.05;;;20.60;84.10;;;;;;4126204;28;20088;-69
2022/06/23 04:55:18;;;;;;;3.05;1.80;;;20.60;84.70;;;;;;4121539;28;20074;-70
2022/06/23 04:57:24;;;;;;;2.88;1.70;;;20.60;85.50;;;;;;4128449;28;20038;-70
2022/06/23 04:59:30;;;;;;;3.70;1.95;;;20.60;86.40;;;;;;4126603;28;20023;-69
2022/06/23 05:01:40;;;;;;;3.25;1.77;;;20.60;85.50;;;;;;4125879;28;20508;-70
2022/06/23 05:03:52;;;;;;;6.20;2.08;;;20.70;85.90;;;;;;4126826;28;20510;-70
2022/06/23 05:06:19;;;;;;;5.05;1.98;;;20.80;86.30;;;;;;4123850;28;20039;-69
2022/06/23 05:08:26;;;;;;;3.70;1.92;;;20.80;86.20;;;;;;4125523;28;20379;-70
2022/06/23 05:10:46;;;;;;;3.53;1.80;;;20.80;86.70;;;;;;4125094;28;20037;-70
2022/06/23 05:12:53;;;;;;;2.83;1.75;;;20.90;87.10;;;;;;4126081;28;20402;-73
2022/06/23 05:15:09;;;;;;;3.10;1.90;;;20.90;87.30;;;;;;4123546;28;20494;-72
2022/06/23 05:17:15;;;;;;;4.47;2.00;;;20.90;86.90;;;;;;4122411;28;20034;-72
2022/06/23 05:19:37;;;;;;;4.15;2.13;;;21.00;86.60;;;;;;4122306;28;20490;-73
2022/06/23 05:21:44;;;;;;;4.32;1.60;;;21.00;86.20;;;;;;4119367;28;20031;-72
2022/06/23 05:24:18;;;;;;;3.40;1.83;;;21.00;87.10;;;;;;4120795;28;20068;-72
2022/06/23 05:26:26;;;;;;;3.55;1.83;;;21.00;87.70;;;;;;4101302;28;20137;-73
2022/06/23 05:28:30;;;;;;;1.55;1.30;;;21.00;88.00;;;;;;4122617;28;20690;-72
2022/06/23 05:30:40;;;;;;;3.72;2.00;;;21.10;88.40;;;;;;4120564;28;20036;-73
2022/06/23 05:32:45;;;;;;;2.55;1.67;;;21.20;87.50;;;;;;4118776;28;20994;-72
2022/06/23 05:35:03;;;;;;;3.03;1.67;;;21.20;89.10;;;;;;4122736;28;20033;-73
2022/06/23 05:37:20;;;;;;;4.80;1.95;;;21.20;88.10;;;;;;4122007;28;20041;-73
2022/06/23 05:39:30;;;;;;;5.90;2.40;;;21.30;85.70;;;;;;4125272;28;20516;-73
2022/06/23 05:41:38;;;;;;;7.88;2.60;;;21.30;84.80;;;;;;4126340;28;20034;-73
2022/06/23 05:43:41;;;;;;;2.80;1.98;;;21.40;83.50;;;;;;4123495;28;20101;-73
2022/06/23 05:45:52;;;;;;;8.85;2.08;;;21.40;84.10;;;;;;4116730;28;20070;-73
2022/06/23 05:47:55;;;;;;;5.38;2.08;;;21.60;86.30;;;;;;4122815;28;20064;-73
2022/06/23 05:50:11;;;;;;;5.75;2.40;;;21.80;83.30;;;;;;4119107;28;20043;-73
2022/06/23 05:52:18;;;;;;;5.05;1.90;;;22.20;81.90;;;;;;4119538;28;20072;-74
2022/06/23 05:54:34;;;;;;;6.88;2.15;;;22.60;81.70;;;;;;4113038;28;20046;-74
2022/06/23 05:57:09;;;;;;;4.78;1.90;;;23.00;80.90;;;;;;4122601;28;20034;-73
2022/06/23 05:59:15;;;;;;;7.00;2.20;;;23.50;80.70;;;;;;4122584;28;20079;-74
2022/06/23 06:01:51;;;;;;;6.55;2.00;;;23.90;78.20;;;;;;4123182;28;20516;-74
2022/06/23 06:04:02;;;;;;;9.25;2.08;;;24.40;76.50;;;;;;4109043;28;20168;-74
2022/06/23 06:06:03;;;;;;;5.05;1.80;;;24.70;75.70;;;;;;4124467;28;20181;-74
2022/06/23 06:08:20;;;;;;;4.05;1.75;;;25.00;75.20;;;;;;4125478;28;20038;-72
2022/06/23 06:10:25;;;;;;;3.28;1.98;;;25.50;73.60;;;;;;4124714;28;20561;-74
2022/06/23 06:12:36;;;;;;;7.53;1.90;;;25.80;72.50;;;;;;4124555;28;20148;-74
2022/06/23 06:14:42;;;;;;;3.97;1.75;;;26.00;72.10;;;;;;4125984;28;20031;-74
2022/06/23 06:16:43;;;;;;;3.97;2.33;;;26.20;71.10;;;;;;4107769;28;20027;-74
2022/06/23 06:18:46;;;;;;;5.50;1.40;;;26.40;70.60;;;;;;4125660;28;20393;-74
2022/06/23 06:20:48;;;;;;;5.15;1.75;;;26.70;70.30;;;;;;4123010;28;20033;-75
2022/06/23 06:23:22;;;;;;;6.68;2.15;;;26.70;69.60;;;;;;4124805;28;20026;-74
2022/06/23 06:25:24;;;;;;;3.95;2.17;;;27.00;69.60;;;;;;4107396;28;20038;-74
2022/06/23 06:27:25;;;;;;;5.10;2.00;;;27.30;69.50;;;;;;4126719;28;20077;-74
2022/06/23 06:29:35;;;;;;;7.25;1.58;;;27.50;69.00;;;;;;4124945;28;20042;-74
2022/06/23 06:31:40;;;;;;;4.10;1.90;;;27.60;69.10;;;;;;4124093;28;20169;-74
2022/06/23 06:34:05;;;;;;;5.53;1.50;;;27.60;69.50;;;;;;4125394;28;20045;-74
2022/06/23 06:36:28;;;;;;;2.65;1.58;;;27.70;69.60;;;;;;4126009;28;20133;-74
2022/06/23 06:38:30;;;;;;;2.47;1.90;;;27.80;69.90;;;;;;4123825;28;20065;-74
2022/06/23 06:40:32;;;;;;;2.53;1.70;;;27.70;70.50;;;;;;4114784;28;20054;-74
2022/06/23 06:42:38;;;;;;;3.92;1.90;;;27.90;70.30;;;;;;4119821;28;20062;-74
2022/06/23 06:44:43;;;;;;;6.50;2.30;;;27.60;70.70;;;;;;4124983;28;20035;-74
2022/06/23 06:46:44;;;;;;;4.65;1.83;;;27.50;70.70;;;;;;4123470;28;20105;-74
2022/06/23 06:48:46;;;;;;;3.80;1.75;;;27.40;71.50;;;;;;4124600;28;20126;-74
2022/06/23 06:50:52;;;;;;;6.65;2.22;;;27.40;71.90;;;;;;4121528;28;20086;-74
2022/06/23 06:52:53;;;;;;;5.55;2.17;;;27.20;72.10;;;;;;4120333;28;20111;-74
2022/06/23 06:55:00;;;;;;;7.88;2.42;;;27.20;72.70;;;;;;4125878;28;20062;-74
2022/06/23 06:57:05;;;;;;;6.82;1.98;;;27.20;72.70;;;;;;4123709;28;20808;-74
2022/06/23 06:59:15;;;;;;;3.85;2.38;;;27.10;72.70;;;;;;4125317;28;20034;-74
2022/06/23 07:01:22;;;;;;;4.97;2.25;;;27.20;73.20;;;;;;4125639;28;20137;-74
2022/06/23 07:03:25;;;;;;;3.83;1.90;;;27.10;73.30;;;;;;4124377;28;20041;-74
2022/06/23 07:05:42;;;;;;;4.95;1.90;;;27.20;73.70;;;;;;4125221;28;20034;-74
2022/06/23 07:07:48;;;;;;;4.15;1.58;;;27.30;74.00;;;;;;4125221;28;20405;-74
2022/06/23 07:09:57;;;;;;;8.25;2.22;;;27.30;73.00;;;;;;4125443;28;20034;-74
2022/06/23 07:12:13;;;;;;;6.93;1.90;;;27.20;73.00;;;;;;4122026;28;20085;-74
2022/06/23 07:14:18;;;;;;;4.45;1.60;;;27.30;74.40;;;;;;4124724;28;20050;-74
2022/06/23 07:16:28;;;;;;;6.75;2.67;;;27.20;73.80;;;;;;4124240;28;20036;-74
2022/06/23 07:18:43;;;;;;;4.30;2.03;;;27.20;73.80;;;;;;4126458;28;20100;-74
2022/06/23 07:20:53;;;;;;;6.22;2.25;;;27.30;74.40;;;;;;4123747;28;20061;-74
2022/06/23 07:23:08;;;;;;;5.80;1.80;;;27.30;74.60;;;;;;4124045;28;20038;-74
2022/06/23 07:25:20;;;;;;;4.05;2.10;;;27.30;74.50;;;;;;4124760;28;20038;-72
2022/06/23 07:27:43;;;;;;;6.40;2.30;;;27.30;75.00;;;;;;4122564;28;20047;-73
2022/06/23 07:29:58;;;;;;;3.78;2.17;;;27.30;75.90;;;;;;4124243;28;20046;-73
2022/06/23 07:32:06;;;;;;;4.03;2.20;;;27.40;75.80;;;;;;4121831;28;20520;-73
2022/06/23 07:34:10;;;;;;;4.60;1.90;;;27.40;76.10;;;;;;4123142;28;20030;-72
2022/06/23 07:36:36;;;;;;;5.68;2.08;;;27.50;76.10;;;;;;4126385;28;20493;-73
2022/06/23 07:38:45;;;;;;;4.28;2.03;;;27.60;76.00;;;;;;4124420;28;20035;-73
2022/06/23 07:41:31;;;;;;;4.47;2.00;;;27.60;74.70;;;;;;4122358;28;20042;-73
2022/06/23 07:43:46;;;;;;;4.03;2.10;;;27.70;75.40;;;;;;4055741;28;20055;-73
2022/06/23 07:45:53;;;;;;;5.65;1.98;;;27.70;75.00;;;;;;4123963;28;20041;-73
2022/06/23 07:47:55;;;;;;;3.92;2.00;;;27.80;75.10;;;;;;4122477;28;20034;-73
2022/06/23 07:49:55;;;;;;;8.15;2.63;;;27.80;75.40;;;;;;4122335;28;20054;-73
2022/06/23 07:51:56;;;;;;;4.75;1.90;;;27.90;75.60;;;;;;4123520;28;20417;-73
2022/06/23 07:53:57;;;;;;;3.42;1.83;;;27.90;75.80;;;;;;4123304;28;20101;-73
2022/06/23 07:55:58;;;;;;;3.67;1.73;;;28.00;75.80;;;;;;4123051;28;20043;-73
2022/06/23 07:57:59;;;;;;;8.23;2.30;;;27.90;74.80;;;;;;4123171;28;20077;-72
2022/06/23 08:00:06;;;;;;;3.85;2.00;;;28.00;75.50;;;;;;4123317;28;20047;-73
2022/06/23 08:02:19;;;;;;;10.80;2.45;;;28.10;75.90;;;;;;4122813;28;20038;-72
2022/06/23 08:04:29;;;;;;;4.53;1.98;;;28.20;75.30;;;;;;4123900;28;20096;-73
2022/06/23 08:06:33;;;;;;;3.45;1.73;;;28.30;75.00;;;;;;4122538;28;20162;-72
2022/06/23 08:08:38;;;;;;;12.55;2.83;;;28.30;74.30;;;;;;4123817;28;20054;-72
2022/06/23 08:10:40;;;;;;;4.00;2.20;;;28.40;75.10;;;;;;4116894;28;20030;-73
2022/06/23 08:12:58;;;;;;;4.97;2.53;;;28.30;74.20;;;;;;4123602;28;20034;-73
2022/06/23 08:17:41;;;;;;;6.32;2.50;;;28.40;74.00;;;;;;4125589;28;20027;-73
2022/06/23 08:19:50;;;;;;;6.40;2.17;;;28.40;74.50;;;;;;4124840;28;20046;-73
2022/06/23 08:21:58;;;;;;;6.00;2.60;;;28.50;75.10;;;;;;4119937;28;20765;-73
2022/06/23 08:24:05;;;;;;;7.15;2.47;;;28.60;76.10;;;;;;4126465;28;20065;-73
2022/06/23 08:26:08;;;;;;;5.50;2.15;;;28.70;73.90;;;;;;4116491;28;20036;-73
2022/06/23 08:28:09;;;;;;;7.30;2.28;;;28.60;73.20;;;;;;4125147;28;20034;-73
2022/06/23 08:30:14;;;;;;;6.00;2.08;;;28.60;73.90;;;;;;4098781;28;20049;-75
2022/06/23 08:32:15;;;;;;;5.70;2.38;;;28.70;73.40;;;;;;4118536;28;20041;-72
2022/06/23 08:34:15;;;;;;;10.05;2.40;;;28.60;72.90;;;;;;4129422;28;20039;-73
2022/06/23 08:36:22;;;;;;;7.47;2.50;;;28.60;72.60;;;;;;4124883;28;20034;-75
2022/06/23 08:38:31;;;;;;;11.75;3.25;;;28.60;73.00;;;;;;4118266;28;20525;-74
2022/06/23 08:40:53;;;;;;;8.02;3.13;;;28.60;72.10;;;;;;4114864;28;20034;-74
2022/06/23 08:43:11;;;;;;;6.70;2.05;;;28.60;72.80;;;;;;4125434;28;20046;-74
2022/06/23 08:45:40;;;;;;;5.20;2.47;;;28.70;72.20;;;;;;4123353;28;20034;-74
2022/06/23 08:48:11;;;;;;;8.30;2.38;;;28.80;71.70;;;;;;4122961;28;20044;-73
2022/06/23 08:50:20;;;;;;;5.20;2.30;;;28.80;71.50;;;;;;4122468;28;20413;-73
2022/06/23 08:52:43;;;;;;;4.20;2.22;;;28.70;71.30;;;;;;4124405;28;20181;-72
2022/06/23 08:54:55;;;;;;;;;;;28.80;71.00;;;;;;4120228;28;20506;-72
2022/06/23 08:57:03;;;;;;;4.68;2.20;;;28.80;71.30;;;;;;4117718;28;20062;-72
2022/06/23 08:59:10;;;;;;;5.53;2.55;;;28.90;70.80;;;;;;4121033;28;20051;-72
2022/06/23 09:01:18;;;;;;;8.50;2.95;;;29.00;71.20;;;;;;4114007;28;20038;-72
2022/06/23 09:03:52;;;;;;;4.13;2.40;;;29.00;70.70;;;;;;4122981;28;20593;-72
2022/06/23 09:06:19;;;;;;;3.45;1.85;;;29.00;71.30;;;;;;4119964;28;20030;-72
2022/06/23 09:08:38;;;;;;;7.35;2.40;;;29.10;71.20;;;;;;4122837;28;20027;-73
2022/06/23 09:11:01;;;;;;;4.55;2.30;;;29.20;71.70;;;;;;4120791;28;20081;-72
2022/06/23 09:13:16;;;;;;;4.35;2.28;;;29.20;70.30;;;;;;4123723;28;20169;-72
2022/06/23 09:15:46;;;;;;;4.65;2.10;;;29.40;70.40;;;;;;4123550;28;20045;-73
2022/06/23 09:18:13;;;;;;;6.60;2.30;;;29.50;70.50;;;;;;4123087;28;20030;-72
2022/06/23 09:20:35;;;;;;;4.25;2.40;;;29.50;69.70;;;;;;4124109;28;20041;-73
2022/06/23 09:23:09;;;;;;;5.85;2.40;;;29.50;69.70;;;;;;4120149;28;20070;-73
2022/06/23 09:25:39;;;;;;;5.13;2.65;;;29.60;69.80;;;;;;4121614;28;20027;-74
2022/06/23 09:28:04;;;;;;;5.30;2.15;;;29.40;70.20;;;;;;4092825;28;20489;-72
2022/06/23 09:30:14;;;;;;;4.78;2.20;;;29.50;70.40;;;;;;4122919;28;20043;-74
2022/06/23 09:32:21;;;;;;;4.75;2.35;;;29.60;71.70;;;;;;4126233;28;20551;-72
2022/06/23 09:34:33;;;;;;;5.70;2.60;;;29.70;70.80;;;;;;4123463;28;20053;-72
2022/06/23 09:36:55;;;;;;;7.45;2.60;;;29.70;69.60;;;;;;4121653;28;20109;-72
2022/06/23 09:38:56;;;;;;;4.25;2.33;;;29.80;69.30;;;;;;4123409;28;20116;-72
2022/06/23 09:41:32;;;;;;;6.72;2.60;;;29.80;69.40;;;;;;4121849;28;20524;-72
2022/06/23 09:44:01;;;;;;;6.68;2.72;;;29.70;68.70;;;;;;4124512;28;20133;-72
2022/06/23 09:46:17;;;;;;;7.45;3.03;;;29.80;68.90;;;;;;4122925;28;20559;-72
2022/06/23 09:48:56;;;;;;;4.20;2.47;;;29.90;70.20;;;;;;4124847;28;20058;-72
2022/06/23 09:51:27;;;;;;;4.95;2.47;;;29.90;69.40;;;;;;4096270;28;20042;-72
2022/06/23 09:54:02;;;;;;;7.45;2.55;;;29.90;70.00;;;;;;4123840;28;20667;-72
2022/06/23 09:56:40;;;;;;;5.40;2.33;;;30.00;69.30;;;;;;4122437;28;20041;-72
2022/06/23 09:58:56;;;;;;;9.38;2.92;;;30.10;69.50;;;;;;4091491;28;20034;-72
2022/06/23 10:01:35;;;;;;;4.22;2.38;;;30.10;67.50;;;;;;4123042;28;20026;-72
2022/06/23 10:03:48;;;;;;;6.75;2.83;;;30.20;68.90;;;;;;4124045;28;20043;-71
2022/06/23 10:06:26;;;;;;;10.45;3.05;;;30.20;67.20;;;;;;4124040;28;20028;-72
2022/06/23 10:08:48;;;;;;;3.63;2.45;;;30.30;67.10;;;;;;4123234;28;20054;-72
2022/06/23 10:10:48;;;;;;;6.22;2.78;;;30.30;66.60;;;;;;4122080;28;20493;-72
2022/06/23 10:13:17;;;;;;;5.60;2.78;;;30.30;66.70;;;;;;4122785;28;20027;-72
2022/06/23 10:15:46;;;;;;;8.73;2.97;;;30.40;67.00;;;;;;4088402;28;20042;-73
2022/06/23 10:18:15;;;;;;;10.60;2.95;;;30.40;66.80;;;;;;4124379;28;20054;-72
2022/06/23 10:20:39;;;;;;;3.90;2.58;;;30.50;66.90;;;;;;4122683;28;20038;-73
2022/06/23 10:23:17;;;;;;;4.32;2.60;;;30.60;67.00;;;;;;4117477;28;21203;-72
2022/06/23 10:25:18;;;;;;;6.03;2.80;;;30.60;65.50;;;;;;4122169;28;22414;-74
2022/06/23 10:27:43;;;;;;;6.63;2.65;;;30.60;65.20;;;;;;4110709;28;20043;-73
2022/06/23 10:29:44;;;;;;;3.63;2.63;;;30.50;65.40;;;;;;4124741;28;20038;-72
2022/06/23 10:31:57;;;;;;;3.72;2.20;;;30.60;65.30;;;;;;4125791;28;20060;-72
2022/06/23 10:34:24;;;;;;;3.78;2.17;;;30.60;65.50;;;;;;4125509;28;20157;-72
2022/06/23 10:37:02;;;;;;;4.60;2.40;;;30.70;64.80;;;;;;4080720;28;20030;-72
2022/06/23 10:39:16;;;;;;;6.90;2.70;;;30.90;65.90;;;;;;4126590;28;20038;-72
2022/06/23 10:41:42;;;;;;;8.40;2.50;;;30.80;64.60;;;;;;4126356;28;20125;-72
2022/06/23 10:44:00;;;;;;;4.43;2.63;;;30.80;65.00;;;;;;4126368;28;20045;-72
2022/06/23 10:46:14;;;;;;;5.68;2.00;;;30.80;65.40;;;;;;4125492;28;20454;-72
2022/06/23 10:48:54;;;;;;;5.13;2.28;;;30.80;64.00;;;;;;4127824;28;20038;-73
2022/06/23 10:51:07;;;;;;;7.45;2.50;;;30.90;64.50;;;;;;4125867;28;20145;-73
2022/06/23 10:53:50;;;;;;;3.40;2.75;;;31.00;66.20;;;;;;4124982;28;20066;-72
2022/06/23 10:56:02;;;;;;;;;;;31.10;65.60;;;;;;4122493;28;20105;-72
2022/06/23 10:58:49;;;;;;;4.30;2.60;;;31.10;65.80;;;;;;4123656;28;19992;-72
2022/06/23 11:01:02;;;;;;;6.32;2.60;;;31.20;65.30;;;;;;4125535;28;20264;-72
2022/06/23 11:03:22;;;;;;;5.60;3.13;;;31.20;64.50;;;;;;4124277;28;20050;-72
2022/06/23 11:05:44;;;;;;;7.70;3.10;;;31.20;64.20;;;;;;4120982;28;20085;-72
2022/06/23 11:07:59;;;;;;;4.30;2.50;;;31.20;64.30;;;;;;4121718;28;20034;-73
2022/06/23 11:10:22;;;;;;;3.78;2.10;;;31.30;64.80;;;;;;4124488;28;20506;-72
2022/06/23 11:12:37;;;;;;;;;;;31.30;63.90;;;;;;4125430;28;20033;-73
2022/06/23 11:15:20;;;;;;;7.03;2.90;;;31.40;64.60;;;;;;4125035;28;19993;-72
2022/06/23 11:17:49;;;;;;;5.68;2.55;;;31.40;64.30;;;;;;4119552;28;20192;-73
2022/06/23 11:20:13;;;;;;;5.50;2.17;;;31.40;63.50;;;;;;4123187;28;20125;-73
2022/06/23 11:22:30;;;;;;;4.13;2.20;;;31.50;62.80;;;;;;4127307;28;20501;-73
2022/06/23 11:25:20;;;;;;;5.68;2.50;;;31.50;63.30;;;;;;4126496;28;20035;-72
2022/06/23 11:27:29;;;;;;;5.80;2.50;;;31.60;63.40;;;;;;4078996;29;20035;-73
2022/06/23 11:29:40;;;;;;;4.35;2.38;;;31.80;63.00;;;;;;4105128;28;20039;-72
2022/06/23 11:32:13;;;;;;;6.85;2.40;;;31.70;62.90;;;;;;4125242;28;20069;-72
2022/06/23 11:34:41;;;;;;;7.82;2.88;;;31.60;61.60;;;;;;4126669;28;20041;-72
2022/06/23 11:36:51;;;;;;;4.22;1.98;;;31.60;61.90;;;;;;4124209;28;20061;-72
2022/06/23 11:38:57;;;;;;;2.80;2.08;;;31.70;61.50;;;;;;4125894;28;20061;-72
2022/06/23 11:41:15;;;;;;;3.75;2.25;;;31.70;61.70;;;;;;4123906;28;20054;-72
2022/06/23 11:43:36;;;;;;;4.53;2.20;;;31.80;63.60;;;;;;4122361;28;20039;-73
2022/06/23 11:46:01;;;;;;;5.07;2.40;;;31.80;62.40;;;;;;4125542;28;20699;-72
2022/06/23 11:48:31;;;;;;;5.43;2.65;;;31.80;61.70;;;;;;4125424;28;20030;-72
2022/06/23 11:50:32;;;;;;;5.65;2.45;;;31.80;62.60;;;;;;4124429;28;20042;-72
2022/06/23 11:53:00;;;;;;;6.05;2.38;;;31.90;63.30;;;;;;4122694;28;20035;-73